Time;durP1;ratioP1;P1;durP2;ratioP2;P2;SDS_P1;SDS_P2;PMS_P1;PMS_P2;Temp;Humidity;BMP_temperature;BMP_pressure;BME280_temperature;BME280_humidity;BME280_pressure;Samples;Min_cycle;Max_cycle;Signal;HPM_P1;HPM_P2
2020/12/01 00:00:26;;;;;;;55.67;28.65;;;0.50;99.90;;;;;;483198;246;27618;-69
2020/12/01 00:02:27;;;;;;;56.08;29.35;;;0.50;99.90;;;;;;483213;246;27610;-69
2020/12/01 00:04:29;;;;;;;51.85;28.10;;;0.60;99.90;;;;;;483209;246;27635;-70
2020/12/01 00:06:30;;;;;;;54.47;28.05;;;0.60;99.90;;;;;;483221;246;27443;-69
2020/12/01 00:08:31;;;;;;;56.08;27.95;;;0.60;99.90;;;;;;483195;246;27986;-69
2020/12/01 00:10:35;;;;;;;50.25;26.50;;;0.60;99.90;;;;;;483175;246;28653;-68
2020/12/01 00:12:34;;;;;;;49.38;26.73;;;0.70;99.90;;;;;;483027;246;27542;-69
2020/12/01 00:14:35;;;;;;;53.33;28.15;;;0.70;99.90;;;;;;483069;246;27550;-70
2020/12/01 00:16:36;;;;;;;46.45;26.35;;;0.60;99.90;;;;;;483144;246;27451;-69
2020/12/01 00:18:37;;;;;;;48.25;28.10;;;0.60;99.90;;;;;;479418;246;36336;-69
2020/12/01 00:20:39;;;;;;;49.75;26.95;;;0.70;99.90;;;;;;483144;246;27627;-69
2020/12/01 00:22:40;;;;;;;49.00;25.98;;;0.70;99.90;;;;;;483257;246;27467;-69
2020/12/01 00:24:41;;;;;;;49.45;27.70;;;0.70;99.90;;;;;;480263;246;36751;-68
2020/12/01 00:26:42;;;;;;;44.38;27.15;;;0.80;99.90;;;;;;479531;246;36662;-68
2020/12/01 00:28:44;;;;;;;46.10;26.45;;;0.80;99.90;;;;;;483301;246;27456;-71
2020/12/01 00:30:45;;;;;;;41.78;23.35;;;0.80;99.90;;;;;;483304;246;27408;-68
2020/12/01 00:32:46;;;;;;;47.38;23.70;;;0.80;99.90;;;;;;483365;246;27449;-68
2020/12/01 00:34:48;;;;;;;45.42;23.52;;;0.80;99.90;;;;;;483408;246;27398;-67
2020/12/01 00:36:49;;;;;;;38.65;21.83;;;0.70;99.90;;;;;;483372;246;27521;-67
2020/12/01 00:38:50;;;;;;;39.58;22.45;;;0.80;99.90;;;;;;483382;246;27456;-69
2020/12/01 00:40:51;;;;;;;43.38;22.62;;;0.80;99.90;;;;;;483283;246;27987;-69
2020/12/01 00:42:53;;;;;;;41.20;22.60;;;0.80;99.90;;;;;;483334;246;27965;-67
2020/12/01 00:44:54;;;;;;;42.05;22.45;;;0.80;99.90;;;;;;483262;246;27435;-68
2020/12/01 00:46:55;;;;;;;41.17;22.80;;;0.80;99.90;;;;;;483209;246;27486;-68
2020/12/01 00:48:56;;;;;;;40.08;21.90;;;0.90;99.90;;;;;;483234;246;27557;-71
2020/12/01 00:50:58;;;;;;;38.83;21.55;;;0.90;99.90;;;;;;483183;246;27507;-68
2020/12/01 00:52:59;;;;;;;42.67;23.08;;;0.90;99.90;;;;;;483184;246;27483;-68
2020/12/01 00:55:00;;;;;;;43.00;23.70;;;0.90;99.90;;;;;;483011;246;27982;-69
2020/12/01 00:57:01;;;;;;;37.78;21.77;;;0.80;99.90;;;;;;483232;246;27871;-68
2020/12/01 00:59:03;;;;;;;46.40;24.80;;;0.80;99.90;;;;;;483248;246;27924;-68
2020/12/01 01:01:04;;;;;;;45.67;23.15;;;0.80;99.90;;;;;;483164;246;27428;-68
2020/12/01 01:03:05;;;;;;;47.65;25.00;;;0.80;99.90;;;;;;483233;246;27545;-68
2020/12/01 01:05:06;;;;;;;40.15;22.17;;;0.80;99.90;;;;;;483212;246;27467;-69
2020/12/01 01:07:08;;;;;;;44.70;23.70;;;0.90;99.90;;;;;;483160;246;27451;-68
2020/12/01 01:09:09;;;;;;;43.35;22.25;;;0.90;99.90;;;;;;483220;246;27443;-69
2020/12/01 01:11:10;;;;;;;39.03;22.40;;;0.90;99.90;;;;;;483142;246;27934;-69
2020/12/01 01:13:11;;;;;;;39.78;21.55;;;1.00;99.90;;;;;;483187;246;27970;-69
2020/12/01 01:15:13;;;;;;;39.83;22.58;;;0.90;99.90;;;;;;483169;246;27562;-68
2020/12/01 01:17:14;;;;;;;39.22;21.60;;;0.90;99.90;;;;;;483176;246;27435;-67
2020/12/01 01:19:15;;;;;;;46.97;23.38;;;1.00;99.90;;;;;;483219;246;27551;-68
2020/12/01 01:21:16;;;;;;;43.72;23.10;;;1.00;99.90;;;;;;483166;246;27558;-68
2020/12/01 01:23:18;;;;;;;41.22;22.83;;;1.00;99.90;;;;;;483183;246;27470;-68
2020/12/01 01:25:19;;;;;;;38.33;21.30;;;1.00;99.90;;;;;;483203;246;27905;-68
2020/12/01 01:27:20;;;;;;;45.40;23.45;;;1.00;99.90;;;;;;483133;246;28757;-68
2020/12/01 01:29:21;;;;;;;42.42;22.75;;;1.00;99.90;;;;;;483200;246;29034;-68
2020/12/01 01:31:23;;;;;;;41.67;22.60;;;1.10;99.90;;;;;;483155;246;27435;-69
2020/12/01 01:33:24;;;;;;;40.35;21.58;;;1.10;99.90;;;;;;483167;246;27439;-69
2020/12/01 01:35:25;;;;;;;37.95;21.73;;;1.10;99.90;;;;;;483178;246;27439;-68
2020/12/01 01:37:26;;;;;;;39.08;21.02;;;1.10;99.90;;;;;;483253;246;27784;-69
2020/12/01 01:39:28;;;;;;;39.10;21.92;;;1.00;99.90;;;;;;483211;246;27456;-69
2020/12/01 01:41:29;;;;;;;42.03;21.65;;;1.00;99.90;;;;;;483157;246;28094;-68
2020/12/01 01:43:30;;;;;;;44.90;22.35;;;1.00;99.90;;;;;;483177;246;28017;-68
2020/12/01 01:45:31;;;;;;;38.67;21.48;;;0.90;99.90;;;;;;483210;246;27404;-68
2020/12/01 01:47:33;;;;;;;41.65;21.70;;;0.90;99.90;;;;;;483244;246;27520;-69
2020/12/01 01:49:34;;;;;;;44.58;23.87;;;1.00;99.90;;;;;;483275;246;27488;-68
2020/12/01 01:51:35;;;;;;;45.70;21.85;;;1.00;99.90;;;;;;483349;246;27463;-68
2020/12/01 01:53:37;;;;;;;39.95;22.58;;;1.00;99.90;;;;;;483362;246;27496;-70
2020/12/01 01:55:38;;;;;;;42.38;22.50;;;1.00;99.90;;;;;;483412;246;27408;-67
2020/12/01 01:57:39;;;;;;;39.90;21.27;;;1.00;99.90;;;;;;483347;246;27934;-69
2020/12/01 01:59:40;;;;;;;37.80;19.80;;;1.00;99.90;;;;;;483246;246;27992;-68
2020/12/01 02:01:42;;;;;;;38.00;21.80;;;1.00;99.90;;;;;;483140;246;27451;-68
2020/12/01 02:03:43;;;;;;;37.90;21.52;;;1.00;99.90;;;;;;483181;246;27511;-70
2020/12/01 02:05:44;;;;;;;42.55;22.50;;;1.00;99.90;;;;;;483171;246;27527;-68
2020/12/01 02:07:45;;;;;;;37.72;21.58;;;1.00;99.90;;;;;;483256;246;27884;-69
2020/12/01 02:09:47;;;;;;;37.95;20.42;;;1.10;99.90;;;;;;483231;246;27412;-68
2020/12/01 02:11:48;;;;;;;40.05;21.40;;;1.10;99.90;;;;;;483146;246;27451;-68
2020/12/01 02:13:49;;;;;;;37.63;20.62;;;1.10;99.90;;;;;;483182;246;27922;-69
2020/12/01 02:15:50;;;;;;;40.53;22.33;;;1.10;99.90;;;;;;483192;246;28013;-68
2020/12/01 02:17:52;;;;;;;40.22;22.73;;;1.00;99.90;;;;;;483208;246;27439;-68
2020/12/01 02:19:53;;;;;;;41.03;22.17;;;1.00;99.90;;;;;;483197;246;27451;-69
2020/12/01 02:21:54;;;;;;;37.97;22.20;;;1.10;99.90;;;;;;483180;246;27529;-69
2020/12/01 02:23:55;;;;;;;39.78;22.08;;;1.00;99.90;;;;;;483197;246;27539;-68
2020/12/01 02:25:57;;;;;;;43.03;23.40;;;1.00;99.90;;;;;;483184;246;27511;-68
2020/12/01 02:28:01;;;;;;;41.25;22.13;;;1.10;99.90;;;;;;483163;246;28906;-68
2020/12/01 02:29:59;;;;;;;41.72;22.45;;;1.10;99.90;;;;;;482913;246;27942;-69
2020/12/01 02:32:00;;;;;;;39.75;20.80;;;1.10;99.90;;;;;;483096;246;27618;-69
2020/12/01 02:34:02;;;;;;;39.28;20.35;;;1.00;99.90;;;;;;483156;246;27629;-69
2020/12/01 02:36:03;;;;;;;40.22;21.23;;;1.10;99.90;;;;;;483177;246;27515;-69
2020/12/01 02:38:04;;;;;;;41.75;22.17;;;1.00;99.90;;;;;;483211;246;27498;-68
2020/12/01 02:40:05;;;;;;;39.30;21.92;;;1.00;99.90;;;;;;483123;246;27444;-68
2020/12/01 02:42:07;;;;;;;38.63;21.15;;;1.00;99.90;;;;;;483233;246;28652;-68
2020/12/01 02:44:08;;;;;;;35.88;20.83;;;1.00;99.90;;;;;;483220;246;27966;-68
2020/12/01 02:46:09;;;;;;;39.45;20.45;;;1.00;99.90;;;;;;483274;246;27910;-69
2020/12/01 02:48:10;;;;;;;32.95;20.10;;;1.00;99.90;;;;;;483269;246;27403;-69
2020/12/01 02:50:12;;;;;;;36.40;21.20;;;1.00;99.90;;;;;;483316;246;27542;-68
2020/12/01 02:52:13;;;;;;;38.28;21.23;;;1.00;99.90;;;;;;483403;246;27437;-68
2020/12/01 02:54:14;;;;;;;40.03;21.62;;;1.00;99.90;;;;;;483228;246;27459;-68
2020/12/01 02:56:15;;;;;;;36.78;19.90;;;1.00;99.90;;;;;;483224;246;27776;-70
2020/12/01 02:58:17;;;;;;;37.05;19.87;;;1.00;99.90;;;;;;483233;246;27482;-69
2020/12/01 03:00:18;;;;;;;34.85;19.15;;;1.00;99.90;;;;;;483149;246;28133;-69
2020/12/01 03:02:19;;;;;;;35.80;20.67;;;1.00;99.90;;;;;;483209;246;28647;-68
2020/12/01 03:04:20;;;;;;;36.03;19.50;;;1.00;99.90;;;;;;483201;246;27618;-68
2020/12/01 03:06:22;;;;;;;41.17;22.62;;;1.10;99.90;;;;;;483223;246;27460;-70
2020/12/01 03:08:23;;;;;;;37.63;20.60;;;1.00;99.90;;;;;;483215;246;27633;-69
2020/12/01 03:10:24;;;;;;;32.65;19.67;;;1.10;99.90;;;;;;483177;246;27476;-69
2020/12/01 03:12:27;;;;;;;34.65;20.37;;;1.10;99.90;;;;;;483192;246;27444;-70
2020/12/01 03:14:27;;;;;;;34.95;20.67;;;1.10;99.90;;;;;;483112;246;28056;-69
2020/12/01 03:16:28;;;;;;;36.17;20.00;;;1.10;99.90;;;;;;483241;246;28093;-70
2020/12/01 03:18:29;;;;;;;28.33;17.58;;;1.00;99.90;;;;;;483241;246;27978;-69
2020/12/01 03:20:31;;;;;;;34.63;19.70;;;1.00;99.90;;;;;;483164;246;27448;-69
2020/12/01 03:22:32;;;;;;;35.90;20.02;;;1.10;99.90;;;;;;483183;246;27443;-69
2020/12/01 03:24:33;;;;;;;32.88;18.27;;;1.10;99.90;;;;;;475457;243;27471;-69
2020/12/01 03:26:34;;;;;;;34.33;19.45;;;1.10;99.90;;;;;;474391;250;27904;-70
2020/12/01 03:28:36;;;;;;;30.60;18.52;;;1.10;99.90;;;;;;474392;249;27459;-70
2020/12/01 03:30:37;;;;;;;27.95;17.65;;;1.10;99.90;;;;;;474351;250;27938;-68
2020/12/01 03:32:38;;;;;;;32.92;18.40;;;1.20;99.90;;;;;;474296;250;27944;-69
2020/12/01 03:34:39;;;;;;;28.73;17.00;;;1.20;99.90;;;;;;474365;250;27459;-68
2020/12/01 03:36:41;;;;;;;30.12;18.33;;;1.20;99.90;;;;;;474374;250;27471;-70
2020/12/01 03:38:42;;;;;;;28.85;17.37;;;1.10;99.90;;;;;;474382;250;27432;-70
2020/12/01 03:40:43;;;;;;;26.27;16.23;;;1.10;99.90;;;;;;474344;250;27498;-69
2020/12/01 03:42:44;;;;;;;24.67;15.30;;;1.10;99.90;;;;;;474375;250;27547;-69
2020/12/01 03:44:46;;;;;;;29.58;16.08;;;1.20;99.90;;;;;;474392;250;27547;-69
2020/12/01 03:46:47;;;;;;;22.25;14.10;;;1.20;99.90;;;;;;474422;250;27989;-69
2020/12/01 03:48:48;;;;;;;26.75;15.48;;;1.20;99.90;;;;;;474382;250;27977;-69
2020/12/01 03:50:49;;;;;;;26.55;16.05;;;1.20;99.90;;;;;;474350;249;27461;-69
2020/12/01 03:52:51;;;;;;;22.83;15.57;;;1.10;99.90;;;;;;474377;250;27483;-69
2020/12/01 03:54:52;;;;;;;27.17;15.35;;;1.10;99.90;;;;;;474367;249;27835;-70
2020/12/01 03:56:53;;;;;;;26.02;15.40;;;1.10;99.90;;;;;;474413;250;27478;-69
2020/12/01 03:58:54;;;;;;;23.70;14.20;;;1.10;99.90;;;;;;474380;250;27546;-69
2020/12/01 04:00:56;;;;;;;24.63;15.00;;;1.10;99.90;;;;;;474355;250;27987;-70
2020/12/01 04:02:57;;;;;;;25.00;14.85;;;1.10;99.90;;;;;;474346;250;27887;-69
2020/12/01 04:04:58;;;;;;;24.65;15.05;;;1.10;99.90;;;;;;474414;250;27958;-69
2020/12/01 04:06:59;;;;;;;24.00;15.73;;;1.10;99.90;;;;;;474442;250;27498;-69
2020/12/01 04:09:03;;;;;;;24.37;14.93;;;1.10;99.90;;;;;;474459;250;27570;-69
2020/12/01 04:11:02;;;;;;;23.00;14.70;;;1.00;99.90;;;;;;474338;250;27525;-68
2020/12/01 04:13:03;;;;;;;25.45;15.13;;;1.10;99.90;;;;;;474548;250;27479;-69
2020/12/01 04:15:04;;;;;;;23.15;15.30;;;1.10;99.90;;;;;;474566;250;27574;-69
2020/12/01 04:17:06;;;;;;;26.12;16.62;;;1.20;99.90;;;;;;474555;250;27969;-68
2020/12/01 04:19:07;;;;;;;26.33;17.17;;;1.10;99.90;;;;;;474515;250;27941;-69
2020/12/01 04:21:08;;;;;;;25.52;16.27;;;1.10;99.90;;;;;;474459;250;27454;-69
2020/12/01 04:23:09;;;;;;;26.83;16.50;;;1.10;99.90;;;;;;474423;250;27439;-69
2020/12/01 04:25:11;;;;;;;29.83;18.37;;;1.20;99.90;;;;;;474392;250;27506;-69
2020/12/01 04:27:12;;;;;;;33.05;17.33;;;1.10;99.90;;;;;;474408;250;27462;-69
2020/12/01 04:29:13;;;;;;;27.95;16.80;;;1.20;99.90;;;;;;474364;250;27599;-69
2020/12/01 04:31:15;;;;;;;25.85;16.65;;;1.20;99.90;;;;;;474324;249;27462;-69
2020/12/01 04:33:16;;;;;;;28.83;18.17;;;1.20;99.90;;;;;;474365;250;27879;-68
2020/12/01 04:35:17;;;;;;;30.58;18.23;;;1.20;99.90;;;;;;474374;250;27988;-69
2020/12/01 04:37:18;;;;;;;29.20;18.70;;;1.20;99.90;;;;;;474421;250;27491;-69
2020/12/01 04:39:20;;;;;;;29.27;17.15;;;1.10;99.90;;;;;;474391;250;27495;-69
2020/12/01 04:41:21;;;;;;;33.15;19.20;;;1.20;99.90;;;;;;474357;250;27574;-70
2020/12/01 04:43:22;;;;;;;30.12;18.23;;;1.10;99.90;;;;;;474387;250;27542;-69
2020/12/01 04:45:23;;;;;;;32.85;19.35;;;1.10;99.90;;;;;;474346;250;27494;-68
2020/12/01 04:47:25;;;;;;;36.15;20.60;;;1.20;99.90;;;;;;474372;250;28218;-69
2020/12/01 04:49:26;;;;;;;28.87;17.90;;;1.20;99.90;;;;;;474379;250;28049;-69
2020/12/01 04:51:27;;;;;;;30.30;18.65;;;1.20;99.90;;;;;;474327;250;27957;-69
2020/12/01 04:53:28;;;;;;;33.70;19.30;;;1.20;99.90;;;;;;474345;250;27548;-69
2020/12/01 04:55:30;;;;;;;30.12;18.35;;;1.20;99.90;;;;;;474371;250;27457;-68
2020/12/01 04:57:31;;;;;;;35.33;20.70;;;1.20;99.90;;;;;;474366;250;27560;-69
2020/12/01 04:59:32;;;;;;;33.30;19.10;;;1.20;99.90;;;;;;474409;250;27463;-69
2020/12/01 05:01:33;;;;;;;36.70;19.90;;;1.20;99.90;;;;;;474294;250;27565;-68
2020/12/01 05:03:35;;;;;;;32.10;19.20;;;1.20;99.90;;;;;;474383;249;28003;-70
2020/12/01 05:05:49;;;;;;;32.05;18.90;;;1.20;99.90;;;;;;474399;250;28920;-68
2020/12/01 05:07:45;;;;;;;29.25;18.17;;;1.30;99.90;;;;;;473719;250;27424;-68
2020/12/01 05:09:41;;;;;;;34.33;19.40;;;1.30;99.90;;;;;;474025;250;27467;-69
2020/12/01 05:11:44;;;;;;;32.17;19.35;;;1.20;99.90;;;;;;474323;250;27462;-70
2020/12/01 05:13:44;;;;;;;29.87;18.33;;;1.30;99.90;;;;;;474336;250;27487;-68
2020/12/01 05:15:45;;;;;;;29.77;19.25;;;1.30;99.90;;;;;;474388;250;27562;-69
2020/12/01 05:17:46;;;;;;;32.10;18.55;;;1.20;99.90;;;;;;474407;250;27978;-68
2020/12/01 05:19:47;;;;;;;33.88;19.00;;;1.20;99.90;;;;;;474383;250;27940;-69
2020/12/01 05:21:49;;;;;;;29.80;18.83;;;1.30;99.90;;;;;;474456;250;27474;-68
2020/12/01 05:23:50;;;;;;;32.47;18.27;;;1.20;99.90;;;;;;474570;250;27435;-69
2020/12/01 05:25:51;;;;;;;35.50;19.35;;;1.20;99.90;;;;;;474569;250;27462;-69
2020/12/01 05:27:52;;;;;;;33.45;18.45;;;1.20;99.90;;;;;;474588;250;27510;-68
2020/12/01 05:29:54;;;;;;;28.98;17.37;;;1.20;99.90;;;;;;474407;250;27499;-69
2020/12/01 05:31:55;;;;;;;33.08;19.35;;;1.30;99.90;;;;;;474319;250;27555;-71
2020/12/01 05:33:56;;;;;;;34.95;19.50;;;1.30;99.90;;;;;;474350;250;27895;-68
2020/12/01 05:35:58;;;;;;;32.30;18.50;;;1.30;99.90;;;;;;474411;250;27980;-71
2020/12/01 05:37:59;;;;;;;31.00;18.42;;;1.30;99.90;;;;;;474431;250;27590;-69
2020/12/01 05:40:00;;;;;;;37.65;20.20;;;1.30;99.90;;;;;;474388;250;27565;-70
2020/12/01 05:42:01;;;;;;;32.50;18.30;;;1.40;99.90;;;;;;474323;250;27466;-70
2020/12/01 05:44:03;;;;;;;35.72;19.80;;;1.30;99.90;;;;;;474366;250;27535;-69
2020/12/01 05:46:04;;;;;;;33.05;19.90;;;1.30;99.90;;;;;;474417;250;27551;-71
2020/12/01 05:48:05;;;;;;;34.58;19.15;;;1.40;99.90;;;;;;474401;250;29078;-70
2020/12/01 05:50:06;;;;;;;33.17;19.58;;;1.30;99.90;;;;;;474338;250;28079;-68
2020/12/01 05:52:08;;;;;;;31.33;17.92;;;1.40;99.90;;;;;;474373;250;27457;-70
2020/12/01 05:54:09;;;;;;;34.22;19.52;;;1.30;99.90;;;;;;474341;250;27463;-69
2020/12/01 05:56:10;;;;;;;35.13;19.55;;;1.30;99.90;;;;;;474380;250;27473;-70
2020/12/01 05:58:12;;;;;;;33.97;19.73;;;1.30;99.90;;;;;;474403;250;27819;-70
2020/12/01 06:00:13;;;;;;;36.60;20.55;;;1.30;99.90;;;;;;474359;250;27474;-70
2020/12/01 06:02:14;;;;;;;33.72;19.95;;;1.40;99.90;;;;;;474379;250;27493;-69
2020/12/01 06:04:15;;;;;;;36.50;20.75;;;1.30;99.90;;;;;;474406;250;27930;-69
2020/12/01 06:06:16;;;;;;;34.72;18.85;;;1.30;99.90;;;;;;474404;250;28011;-70
2020/12/01 06:08:18;;;;;;;45.92;21.77;;;1.30;99.90;;;;;;474397;250;27494;-69
2020/12/01 06:10:19;;;;;;;39.65;19.12;;;1.30;99.90;;;;;;474349;250;27574;-69
2020/12/01 06:12:20;;;;;;;30.80;17.40;;;1.30;99.90;;;;;;474385;250;27466;-69
2020/12/01 06:14:21;;;;;;;37.30;20.05;;;1.30;99.90;;;;;;474435;250;27550;-70
2020/12/01 06:16:23;;;;;;;41.20;18.58;;;1.40;99.90;;;;;;474426;250;27924;-70
2020/12/01 06:18:25;;;;;;;30.85;18.02;;;1.40;99.90;;;;;;474430;250;28002;-69
2020/12/01 06:20:25;;;;;;;33.15;18.02;;;1.40;99.90;;;;;;474385;250;28033;-69
2020/12/01 06:22:26;;;;;;;27.85;17.25;;;1.40;99.90;;;;;;474364;250;28014;-69
2020/12/01 06:24:28;;;;;;;34.08;18.67;;;1.40;99.90;;;;;;474413;250;27459;-71
2020/12/01 06:26:29;;;;;;;30.60;16.87;;;1.40;99.90;;;;;;474424;250;27459;-69
2020/12/01 06:28:30;;;;;;;24.77;15.10;;;1.40;99.90;;;;;;474404;250;27471;-69
2020/12/01 06:30:31;;;;;;;26.50;15.02;;;1.40;99.90;;;;;;474363;250;27472;-69
2020/12/01 06:32:33;;;;;;;24.67;15.32;;;1.40;99.90;;;;;;474411;250;27467;-69
2020/12/01 06:34:34;;;;;;;21.05;13.27;;;1.50;99.90;;;;;;474481;250;28099;-70
2020/12/01 06:36:35;;;;;;;23.08;14.38;;;1.50;99.90;;;;;;474461;250;27968;-68
2020/12/01 06:38:36;;;;;;;23.40;15.82;;;1.50;99.90;;;;;;474473;250;27471;-69
2020/12/01 06:40:38;;;;;;;22.85;13.30;;;1.50;99.90;;;;;;474479;250;27573;-71
2020/12/01 06:42:39;;;;;;;21.98;13.73;;;1.50;99.90;;;;;;474516;250;27431;-69
2020/12/01 06:44:40;;;;;;;20.30;13.52;;;1.50;99.90;;;;;;474589;250;27499;-69
2020/12/01 06:46:42;;;;;;;22.23;14.13;;;1.50;99.90;;;;;;474583;250;27467;-69
2020/12/01 06:48:43;;;;;;;18.73;12.10;;;1.50;99.90;;;;;;474581;250;27547;-69
2020/12/01 06:50:44;;;;;;;20.02;12.65;;;1.60;99.90;;;;;;474574;250;28067;-72
2020/12/01 06:52:45;;;;;;;18.77;12.30;;;1.60;99.90;;;;;;474602;250;27859;-68
2020/12/01 06:54:47;;;;;;;21.87;13.15;;;1.50;99.90;;;;;;474603;250;27451;-68
2020/12/01 06:56:48;;;;;;;18.42;12.70;;;1.50;99.90;;;;;;474594;249;27443;-68
2020/12/01 06:58:49;;;;;;;16.90;11.23;;;1.60;99.90;;;;;;474563;250;27466;-68
2020/12/01 07:00:50;;;;;;;17.27;11.55;;;1.50;99.90;;;;;;474509;250;27574;-70
2020/12/01 07:02:52;;;;;;;21.77;13.20;;;1.50;99.90;;;;;;474484;250;27420;-68
2020/12/01 07:04:53;;;;;;;18.50;12.20;;;1.50;99.90;;;;;;474428;250;27600;-69
2020/12/01 07:06:54;;;;;;;21.20;12.40;;;1.50;99.90;;;;;;474407;250;28037;-70
2020/12/01 07:08:55;;;;;;;22.13;13.77;;;1.50;99.90;;;;;;474387;249;28044;-69
2020/12/01 07:10:57;;;;;;;19.10;12.10;;;1.60;99.90;;;;;;474376;250;27523;-68
2020/12/01 07:12:58;;;;;;;19.60;12.37;;;1.60;99.90;;;;;;474411;250;27515;-69
2020/12/01 07:14:59;;;;;;;18.05;12.00;;;1.60;99.90;;;;;;474394;250;27546;-69
2020/12/01 07:17:00;;;;;;;17.77;12.27;;;1.60;99.90;;;;;;474425;250;27539;-69
2020/12/01 07:19:02;;;;;;;18.73;12.98;;;1.70;99.90;;;;;;472667;250;36405;-68
2020/12/01 07:21:03;;;;;;;20.55;13.88;;;1.70;99.90;;;;;;474307;250;27980;-68
2020/12/01 07:23:04;;;;;;;19.33;12.60;;;1.70;99.90;;;;;;474329;250;28037;-67
2020/12/01 07:25:05;;;;;;;24.52;15.30;;;1.70;99.90;;;;;;470610;250;37232;-68
2020/12/01 07:27:07;;;;;;;20.80;13.32;;;1.80;99.90;;;;;;474365;250;27527;-68
2020/12/01 07:29:08;;;;;;;21.92;13.13;;;1.80;99.90;;;;;;474379;250;27490;-69
2020/12/01 07:31:09;;;;;;;24.15;15.15;;;1.90;99.90;;;;;;474353;250;27467;-68
2020/12/01 07:33:10;;;;;;;24.02;14.15;;;1.80;99.90;;;;;;474387;250;28082;-70
2020/12/01 07:35:12;;;;;;;23.98;14.25;;;1.80;99.90;;;;;;474391;250;27469;-69
2020/12/01 07:37:13;;;;;;;20.85;13.82;;;1.90;99.90;;;;;;474376;250;28027;-69
2020/12/01 07:39:14;;;;;;;23.60;13.57;;;1.90;99.90;;;;;;474370;250;28037;-69
2020/12/01 07:41:20;;;;;;;24.00;13.98;;;1.90;99.90;;;;;;474319;250;27539;-70
2020/12/01 07:43:17;;;;;;;20.55;14.15;;;1.90;99.90;;;;;;474110;250;27455;-71
2020/12/01 07:45:18;;;;;;;25.08;14.65;;;1.90;99.90;;;;;;474419;250;27473;-69
2020/12/01 07:47:19;;;;;;;22.42;13.30;;;2.00;99.90;;;;;;474402;250;27495;-69
2020/12/01 07:49:20;;;;;;;22.10;13.95;;;2.00;99.90;;;;;;474415;250;27473;-69
2020/12/01 07:51:22;;;;;;;23.90;14.63;;;2.00;99.90;;;;;;474371;250;27428;-68
2020/12/01 07:53:23;;;;;;;22.13;13.38;;;2.00;99.90;;;;;;474429;250;28085;-68
2020/12/01 07:55:24;;;;;;;22.15;13.90;;;2.00;99.90;;;;;;474393;250;28012;-68
2020/12/01 07:57:25;;;;;;;23.08;13.93;;;2.00;99.90;;;;;;474379;250;27470;-68
2020/12/01 07:59:27;;;;;;;22.52;13.93;;;2.10;99.90;;;;;;474410;250;27571;-70
2020/12/01 08:01:28;;;;;;;23.02;13.50;;;2.00;99.90;;;;;;474367;250;27423;-69
2020/12/01 08:03:29;;;;;;;24.10;13.35;;;2.00;99.90;;;;;;474383;250;27573;-68
2020/12/01 08:05:30;;;;;;;22.75;14.23;;;2.00;99.90;;;;;;474368;250;27569;-69
2020/12/01 08:07:32;;;;;;;21.87;13.60;;;2.00;99.90;;;;;;474408;250;27998;-68
2020/12/01 08:09:33;;;;;;;22.75;14.00;;;2.00;99.90;;;;;;474440;250;28100;-69
2020/12/01 08:11:34;;;;;;;22.55;14.25;;;2.10;99.90;;;;;;474502;250;27455;-68
2020/12/01 08:13:36;;;;;;;22.37;13.95;;;2.10;99.90;;;;;;474586;250;27470;-69
2020/12/01 08:15:37;;;;;;;23.80;14.85;;;2.10;99.90;;;;;;474471;250;27515;-68
2020/12/01 08:17:38;;;;;;;21.23;13.77;;;2.10;99.90;;;;;;479545;243;27635;-68
2020/12/01 08:19:39;;;;;;;20.30;13.02;;;2.10;99.90;;;;;;483230;246;27488;-69
2020/12/01 08:21:41;;;;;;;20.30;12.85;;;2.10;99.90;;;;;;483133;246;28034;-68
2020/12/01 08:23:42;;;;;;;20.52;13.45;;;2.10;99.90;;;;;;482979;246;28132;-69
2020/12/01 08:25:43;;;;;;;21.08;12.77;;;2.10;99.90;;;;;;483191;246;27449;-69
2020/12/01 08:27:44;;;;;;;19.55;12.93;;;2.20;99.90;;;;;;483185;246;27562;-68
2020/12/01 08:29:46;;;;;;;21.10;12.63;;;2.20;99.90;;;;;;483149;246;27579;-70
2020/12/01 08:31:47;;;;;;;17.05;11.93;;;2.20;99.90;;;;;;483128;246;27510;-67
2020/12/01 08:33:49;;;;;;;21.60;12.50;;;2.20;99.90;;;;;;483197;246;27546;-69
2020/12/01 08:35:49;;;;;;;18.80;12.20;;;2.20;99.90;;;;;;483187;246;27427;-69
2020/12/01 08:37:51;;;;;;;21.95;12.75;;;2.10;99.90;;;;;;483099;246;28090;-69
2020/12/01 08:39:54;;;;;;;19.20;12.65;;;2.20;99.90;;;;;;483200;246;28006;-68
2020/12/01 08:41:53;;;;;;;18.37;12.35;;;2.20;99.90;;;;;;482985;246;27558;-67
2020/12/01 08:43:54;;;;;;;17.95;12.73;;;2.20;99.90;;;;;;483155;246;27439;-69
2020/12/01 08:45:56;;;;;;;20.83;13.60;;;2.20;99.90;;;;;;483197;246;27574;-68
2020/12/01 08:47:57;;;;;;;20.85;12.60;;;2.30;99.90;;;;;;483179;246;28118;-69
2020/12/01 08:49:58;;;;;;;23.60;13.57;;;2.30;99.90;;;;;;483167;246;28098;-70
2020/12/01 08:51:59;;;;;;;18.52;12.02;;;2.30;99.90;;;;;;483173;246;27429;-69
2020/12/01 08:54:01;;;;;;;17.75;12.05;;;2.30;99.90;;;;;;483160;246;27608;-67
2020/12/01 08:56:02;;;;;;;19.95;13.43;;;2.40;99.90;;;;;;483234;246;27458;-67
2020/12/01 08:58:03;;;;;;;18.08;12.23;;;2.30;99.90;;;;;;483205;246;27446;-68
2020/12/01 09:00:04;;;;;;;18.35;12.10;;;2.30;99.90;;;;;;483174;246;27459;-67
2020/12/01 09:02:06;;;;;;;20.27;13.20;;;2.40;99.90;;;;;;483215;246;27440;-68
2020/12/01 09:04:09;;;;;;;19.90;12.82;;;2.50;99.90;;;;;;483207;246;28013;-67
2020/12/01 09:06:08;;;;;;;22.27;12.98;;;2.60;99.90;;;;;;483045;246;27961;-68
2020/12/01 09:08:23;;;;;;;18.98;11.63;;;2.60;99.90;;;;;;483218;246;27443;-69
2020/12/01 09:10:11;;;;;;;16.27;10.82;;;2.70;99.90;;;;;;482102;246;27560;-67
2020/12/01 09:12:20;;;;;;;16.02;11.40;;;2.70;99.90;;;;;;483097;246;27535;-67
2020/12/01 09:14:37;;;;;;;16.10;10.85;;;2.70;99.90;;;;;;482689;246;27392;-66
2020/12/01 09:17:19;;;;;;;16.35;11.32;;;2.70;99.90;;;;;;482466;246;27460;-68
2020/12/01 09:18:41;;;;;;;15.18;10.77;;;2.70;99.90;;;;;;479880;246;27674;-68
2020/12/01 09:21:51;;;;;;;14.80;10.63;;;2.70;99.90;;;;;;482350;246;27570;-68
2020/12/01 09:22:33;;;;;;;12.32;9.75;;;2.60;99.90;;;;;;480266;246;27507;-68
2020/12/01 09:24:35;;;;;;;16.35;9.88;;;2.60;99.90;;;;;;483336;246;28037;-68
2020/12/01 09:26:36;;;;;;;14.85;10.73;;;2.60;99.90;;;;;;483306;246;28002;-70
2020/12/01 09:28:37;;;;;;;14.95;10.55;;;2.60;99.90;;;;;;483205;246;27948;-68
2020/12/01 09:30:38;;;;;;;14.75;10.68;;;2.70;99.90;;;;;;483173;246;27613;-68
2020/12/01 09:32:40;;;;;;;15.27;11.05;;;2.70;99.90;;;;;;483092;246;27516;-68
2020/12/01 09:34:41;;;;;;;13.40;10.27;;;2.70;99.90;;;;;;483166;246;27435;-68
2020/12/01 09:36:42;;;;;;;12.35;9.45;;;2.70;99.90;;;;;;483159;246;27436;-70
2020/12/01 09:38:43;;;;;;;16.20;10.57;;;2.70;99.90;;;;;;483106;246;27508;-68
2020/12/01 09:40:47;;;;;;;15.13;10.18;;;2.70;99.90;;;;;;483103;246;28014;-68
2020/12/01 09:42:50;;;;;;;17.48;10.65;;;2.70;99.90;;;;;;482970;246;28097;-68
2020/12/01 09:46:59;;;;;;;15.93;11.95;;;2.70;99.90;;;;;;483203;246;27626;-67
2020/12/01 09:48:53;;;;;;;15.48;11.40;;;2.70;99.90;;;;;;482588;246;27456;-67
2020/12/01 09:50:54;;;;;;;21.00;13.07;;;2.70;99.90;;;;;;483120;246;27458;-67
2020/12/01 09:55:17;;;;;;;18.20;11.82;;;2.70;99.90;;;;;;483219;246;28134;-68
2020/12/01 09:57:42;;;;;;;23.98;12.07;;;2.70;99.90;;;;;;482415;246;27558;-67
2020/12/01 10:08:35;;;;;;;20.95;11.80;;;2.80;99.90;;;;;;483224;246;27919;-68
2020/12/01 10:20:30;;;;;;;17.35;11.10;;;3.20;99.90;;;;;;483167;246;27980;-67
2020/12/01 10:25:09;;;;;;;17.58;10.93;;;3.20;99.90;;;;;;483162;246;27407;-67
2020/12/01 10:26:22;;;;;;;18.30;11.70;;;3.20;99.90;;;;;;481692;246;27615;-70
2020/12/01 10:29:34;;;;;;;17.92;10.85;;;3.30;99.90;;;;;;482086;246;27892;-68
2020/12/01 10:34:58;;;;;;;19.92;11.68;;;3.20;99.90;;;;;;483341;246;27458;-68
2020/12/01 10:36:55;;;;;;;16.55;10.40;;;3.20;99.90;;;;;;483078;242;27436;-68
2020/12/01 10:38:59;;;;;;;17.27;10.27;;;3.20;99.90;;;;;;483296;246;28002;-67
2020/12/01 10:40:57;;;;;;;17.65;11.25;;;3.20;99.90;;;;;;483005;246;29020;-66
2020/12/01 10:42:59;;;;;;;13.70;9.60;;;3.20;99.90;;;;;;483199;246;27467;-69
2020/12/01 10:45:00;;;;;;;16.67;10.35;;;3.20;99.90;;;;;;483198;246;27487;-66
2020/12/01 10:47:01;;;;;;;16.08;10.25;;;3.20;99.90;;;;;;483199;246;27435;-67
2020/12/01 10:49:02;;;;;;;14.32;9.98;;;3.20;99.90;;;;;;483168;246;27426;-66
2020/12/01 10:51:04;;;;;;;15.68;10.50;;;3.20;99.90;;;;;;483065;246;27669;-67
2020/12/01 10:53:06;;;;;;;16.25;10.70;;;3.10;99.90;;;;;;483161;246;27423;-65